Time;durP1;ratioP1;P1;durP2;ratioP2;P2;SDS_P1;SDS_P2;PMS_P1;PMS_P2;Temp;Humidity;BMP_temperature;BMP_pressure;BME280_temperature;BME280_humidity;BME280_pressure;Samples;Min_cycle;Max_cycle;Signal;HPM_P1;HPM_P2
2024/02/05 00:01:01;;;;;;;18.48;6.35;;;9.50;99.90;;;8.84;100.00;102772.94;4169244;28;20120;-73
2024/02/05 00:03:03;;;;;;;17.38;7.13;;;9.50;99.90;;;8.85;100.00;102773.78;4169365;28;20028;-73
2024/02/05 00:05:06;;;;;;;20.20;8.05;;;9.50;99.90;;;8.88;100.00;102768.31;4167851;28;20048;-74
2024/02/05 00:07:06;;;;;;;18.63;6.32;;;9.50;99.90;;;8.83;100.00;102768.63;4169096;28;20079;-74
2024/02/05 00:09:07;;;;;;;16.77;5.68;;;9.50;99.90;;;8.82;100.00;102760.81;4168087;28;20025;-73
2024/02/05 00:11:08;;;;;;;17.00;4.72;;;9.50;99.90;;;8.84;100.00;102772.94;4166999;28;20075;-72
2024/02/05 00:13:09;;;;;;;18.27;4.95;;;9.50;99.90;;;8.84;100.00;102765.03;4169292;28;20052;-72
2024/02/05 00:15:10;;;;;;;14.63;5.05;;;9.50;99.90;;;8.85;100.00;102768.50;4169194;28;20022;-73
2024/02/05 00:17:11;;;;;;;21.33;5.03;;;9.50;99.90;;;8.87;100.00;102762.22;4168638;28;20030;-74
2024/02/05 00:19:12;;;;;;;12.45;4.97;;;9.50;99.90;;;8.88;100.00;102766.53;4169715;28;20029;-74
2024/02/05 00:21:13;;;;;;;12.75;4.88;;;9.50;99.90;;;8.85;100.00;102750.94;4169451;28;20495;-73
2024/02/05 00:23:14;;;;;;;13.80;6.30;;;9.60;99.90;;;8.87;100.00;102762.22;4169333;28;20029;-74
2024/02/05 00:25:15;;;;;;;16.08;5.22;;;9.60;99.90;;;8.86;100.00;102755.28;4169669;28;20079;-74
2024/02/05 00:27:16;;;;;;;16.92;4.75;;;9.50;99.90;;;8.84;100.00;102753.69;4168484;28;20029;-74
2024/02/05 00:29:17;;;;;;;20.95;5.63;;;9.50;99.90;;;8.84;100.00;102762.41;4169425;28;20057;-74
2024/02/05 00:31:19;;;;;;;19.02;5.00;;;9.50;99.90;;;8.84;100.00;102753.69;4168528;28;20432;-74
2024/02/05 00:33:20;;;;;;;14.90;5.47;;;9.50;99.90;;;8.85;100.00;102753.56;4168475;28;20033;-74
2024/02/05 00:35:21;;;;;;;15.55;4.72;;;9.50;99.90;;;8.83;100.00;102760.72;4168256;28;20036;-74
2024/02/05 00:37:22;;;;;;;21.25;4.65;;;9.50;99.90;;;8.83;100.00;102759.88;4169223;28;20120;-74
2024/02/05 00:39:24;;;;;;;21.17;5.15;;;9.50;99.90;;;8.82;100.00;102758.19;4168219;28;20531;-74
2024/02/05 00:41:25;;;;;;;17.85;5.45;;;9.50;99.90;;;8.81;100.00;102757.31;4167465;28;20112;-74
2024/02/05 00:43:26;;;;;;;23.70;4.68;;;9.50;99.90;;;8.82;100.00;102747.66;4169572;28;20067;-74
2024/02/05 00:45:27;;;;;;;20.40;4.93;;;9.50;99.90;;;8.77;100.00;102749.72;4169121;28;20515;-74
2024/02/05 00:47:28;;;;;;;16.67;4.32;;;9.50;99.90;;;8.77;100.00;102750.59;4168096;28;20041;-74
2024/02/05 00:49:28;;;;;;;23.40;5.75;;;9.50;99.90;;;8.78;100.00;102752.25;4169296;28;20018;-73
2024/02/05 00:51:29;;;;;;;13.80;4.57;;;9.50;99.90;;;8.76;100.00;102754.16;4167965;28;20469;-73
2024/02/05 00:53:30;;;;;;;18.85;5.80;;;9.50;99.90;;;8.75;100.00;102746.38;4169249;28;20018;-74
2024/02/05 00:55:31;;;;;;;22.52;5.07;;;9.50;99.90;;;8.78;100.00;102752.25;4168054;28;20032;-74
2024/02/05 00:57:33;;;;;;;17.90;4.32;;;9.50;99.90;;;8.75;100.00;102744.56;4169237;28;20083;-73
2024/02/05 00:59:33;;;;;;;23.83;4.90;;;9.40;99.90;;;8.75;100.00;102741.91;4169118;28;20040;-74
2024/02/05 01:01:34;;;;;;;17.05;4.22;;;9.40;99.90;;;8.76;100.00;102742.78;4168012;28;20033;-73
2024/02/05 01:03:35;;;;;;;17.75;3.78;;;9.40;99.90;;;8.74;100.00;102745.50;4169163;28;20033;-74
2024/02/05 01:05:36;;;;;;;19.13;4.60;;;9.50;99.90;;;8.74;100.00;102742.88;4168484;28;20052;-73
2024/02/05 01:07:37;;;;;;;13.27;4.00;;;9.50;99.90;;;8.75;100.00;102741.91;4168879;28;20563;-74
2024/02/05 01:09:38;;;;;;;23.05;5.00;;;9.50;99.90;;;8.75;100.00;102741.09;4168800;28;20558;-73
2024/02/05 01:11:39;;;;;;;21.17;5.82;;;9.50;99.90;;;8.72;100.00;102734.22;4169023;28;20500;-73
2024/02/05 01:13:39;;;;;;;23.30;4.90;;;9.50;99.90;;;8.74;100.00;102740.25;4169025;28;20044;-73
2024/02/05 01:15:41;;;;;;;13.43;4.38;;;9.40;99.90;;;8.74;100.00;102737.63;4168869;28;20052;-73
2024/02/05 01:17:41;;;;;;;16.88;4.18;;;9.40;99.90;;;8.74;100.00;102726.25;4168860;28;20029;-73
2024/02/05 01:19:43;;;;;;;17.70;3.92;;;9.40;99.90;;;8.74;100.00;102726.25;4167595;28;20444;-73
2024/02/05 01:21:44;;;;;;;17.70;3.53;;;9.40;99.90;;;8.73;100.00;102722.75;4167516;28;20108;-74
2024/02/05 01:23:45;;;;;;;17.15;4.30;;;9.40;99.90;;;8.73;100.00;102724.53;4167692;28;20052;-74
2024/02/05 01:25:45;;;;;;;19.38;4.75;;;9.40;99.90;;;8.68;100.00;102716.94;4168774;28;20032;-73
2024/02/05 01:27:46;;;;;;;20.83;4.85;;;9.40;99.90;;;8.67;100.00;102717.88;4167510;28;20029;-74
2024/02/05 01:29:47;;;;;;;18.52;4.28;;;9.40;99.90;;;8.68;100.00;102709.06;4167498;28;20563;-74
2024/02/05 01:31:49;;;;;;;20.92;4.97;;;9.40;99.90;;;8.66;100.00;102721.44;4168793;28;20516;-73
2024/02/05 01:33:49;;;;;;;15.00;4.30;;;9.40;99.90;;;8.65;100.00;102709.25;4167322;28;20082;-74
2024/02/05 01:35:50;;;;;;;18.85;4.32;;;9.40;99.90;;;8.64;100.00;102709.31;4168326;28;20485;-74
2024/02/05 01:37:51;;;;;;;16.63;3.90;;;9.40;99.90;;;8.65;100.00;102714.50;4167439;28;20018;-74
2024/02/05 01:39:52;;;;;;;17.20;3.85;;;9.40;99.90;;;8.67;100.00;102707.34;4168761;28;20523;-74
2024/02/05 01:41:53;;;;;;;20.85;5.03;;;9.30;99.90;;;8.64;100.00;102710.19;4167489;28;20029;-74
2024/02/05 01:43:54;;;;;;;20.38;4.60;;;9.40;99.90;;;8.61;100.00;102696.38;4167341;28;20037;-73
2024/02/05 01:45:55;;;;;;;13.45;4.90;;;9.30;99.90;;;8.63;100.00;102708.47;4167347;28;20485;-73
2024/02/05 01:47:56;;;;;;;21.75;4.53;;;9.40;99.90;;;8.64;100.00;102712.81;4168637;28;20061;-73
2024/02/05 01:49:58;;;;;;;17.70;4.90;;;9.40;99.90;;;8.61;100.00;102702.47;4167327;28;20453;-74
2024/02/05 01:52:02;;;;;;;16.35;5.10;;;9.30;99.90;;;8.60;100.00;102703.41;4167097;28;20022;-74
2024/02/05 01:54:03;;;;;;;14.35;4.28;;;9.30;99.90;;;8.59;100.00;102701.75;4168714;28;20045;-73
2024/02/05 01:56:06;;;;;;;21.30;4.45;;;9.30;99.90;;;8.62;100.00;102705.97;4168550;28;20026;-73
2024/02/05 01:58:07;;;;;;;13.35;3.47;;;9.30;99.90;;;8.59;100.00;102704.38;4168501;28;20025;-74
2024/02/05 02:00:11;;;;;;;11.40;4.05;;;9.30;99.90;;;8.59;100.00;102706.16;4168570;28;20057;-73
2024/02/05 02:02:12;;;;;;;22.27;3.75;;;9.30;99.90;;;8.58;100.00;102707.94;4151153;28;20130;-73
2024/02/05 02:04:13;;;;;;;16.70;4.30;;;9.30;99.90;;;8.55;100.00;102697.59;4168562;28;20401;-73
2024/02/05 02:06:14;;;;;;;23.33;3.97;;;9.30;99.90;;;8.55;100.00;102696.75;4150569;28;20026;-73
2024/02/05 02:08:16;;;;;;;17.23;5.03;;;9.30;99.90;;;8.58;100.00;102700.03;4167221;28;20088;-73
2024/02/05 02:10:17;;;;;;;18.80;4.78;;;9.30;99.90;;;8.58;100.00;102697.41;4168355;28;20040;-74
2024/02/05 02:12:19;;;;;;;15.02;4.00;;;9.30;99.90;;;8.54;100.00;102695.91;4168537;28;20556;-73
2024/02/05 02:14:20;;;;;;;19.38;3.88;;;9.30;99.90;;;8.53;100.00;102694.22;4150775;28;20052;-74
2024/02/05 02:16:26;;;;;;;11.05;3.83;;;9.30;99.90;;;8.55;100.00;102700.22;4168838;28;20026;-73
2024/02/05 02:18:30;;;;;;;18.88;4.93;;;9.20;99.90;;;8.52;100.00;102694.31;4171775;28;20493;-73
2024/02/05 02:20:46;;;;;;;10.98;3.90;;;9.20;99.90;;;8.53;100.00;102691.59;4170559;28;20030;-74
2024/02/05 02:23:09;;;;;;;21.05;4.88;;;9.20;99.90;;;8.49;100.00;102690.09;4171394;28;20033;-74
2024/02/05 02:25:10;;;;;;;21.77;4.68;;;9.20;99.90;;;8.51;100.00;102684.75;4170562;28;20029;-73
2024/02/05 02:27:11;;;;;;;19.13;4.30;;;9.20;99.90;;;8.50;100.00;102689.16;4170282;28;20025;-73
2024/02/05 02:29:12;;;;;;;16.08;3.92;;;9.20;99.90;;;8.45;100.00;102685.13;4169975;28;20032;-74
2024/02/05 02:31:17;;;;;;;15.55;3.53;;;9.20;99.90;;;8.48;100.00;102688.41;4170158;28;20029;-73
2024/02/05 02:34:00;;;;;;;19.30;4.40;;;9.20;99.90;;;8.47;100.00;102689.34;4169827;28;20030;-74
2024/02/05 02:36:09;;;;;;;20.70;4.60;;;9.20;99.90;;;8.43;100.00;102677.31;4151466;28;20022;-74
2024/02/05 02:38:19;;;;;;;12.55;3.60;;;9.20;99.90;;;8.44;100.00;102676.38;4170243;28;20148;-74
2024/02/05 02:40:22;;;;;;;11.63;2.63;;;9.20;99.90;;;8.47;100.00;102663.03;4171337;28;20087;-74
2024/02/05 02:42:25;;;;;;;10.23;3.28;;;9.20;99.90;;;8.49;100.00;102671.69;4170068;28;20448;-74
2024/02/05 02:44:29;;;;;;;17.45;3.50;;;9.20;99.90;;;8.45;100.00;102664.09;4170248;28;20489;-74
2024/02/05 02:46:30;;;;;;;17.05;3.80;;;9.20;99.90;;;8.47;100.00;102667.47;4169976;28;20030;-74
2024/02/05 02:48:31;;;;;;;12.65;3.50;;;9.20;99.90;;;8.49;100.00;102657.69;4169959;28;20084;-74
2024/02/05 02:50:32;;;;;;;11.70;3.63;;;9.20;99.90;;;8.50;100.00;102657.59;4169840;28;20540;-74
2024/02/05 02:52:32;;;;;;;16.42;6.47;;;9.20;99.90;;;8.50;100.00;102660.22;4171103;28;20025;-74
2024/02/05 02:54:33;;;;;;;19.48;4.35;;;9.20;99.90;;;8.49;100.00;102658.53;4171217;28;20030;-74
2024/02/05 02:56:35;;;;;;;13.63;2.90;;;9.20;99.90;;;8.47;100.00;102655.16;4171071;28;20029;-74
2024/02/05 02:58:36;;;;;;;15.52;3.10;;;9.20;99.90;;;8.44;100.00;102657.97;4169833;28;20029;-73
2024/02/05 03:00:37;;;;;;;18.20;3.72;;;9.20;99.90;;;8.44;100.00;102655.34;4171088;28;20048;-74
2024/02/05 03:02:38;;;;;;;19.27;3.70;;;9.20;99.90;;;8.48;100.00;102648.97;4171053;28;20029;-74
2024/02/05 03:04:40;;;;;;;18.15;3.78;;;9.20;99.90;;;8.44;100.00;102636.94;4170938;28;20505;-73
2024/02/05 03:06:41;;;;;;;15.23;3.72;;;9.20;99.90;;;8.46;100.00;102642.09;4169388;28;20025;-74
2024/02/05 03:08:42;;;;;;;17.40;5.75;;;9.20;99.90;;;8.45;100.00;102635.16;4169764;28;20034;-74
2024/02/05 03:10:43;;;;;;;14.15;6.30;;;9.20;99.90;;;8.49;100.00;102634.84;4169594;28;20034;-73
2024/02/05 03:12:44;;;;;;;13.48;4.30;;;9.20;99.90;;;8.47;100.00;102639.38;4170946;28;20021;-74
2024/02/05 03:14:45;;;;;;;10.05;2.45;;;9.20;99.90;;;8.50;100.00;102635.69;4170678;28;20021;-74
2024/02/05 03:16:46;;;;;;;13.70;4.57;;;9.20;99.90;;;8.49;100.00;102634.00;4169351;28;20032;-73
2024/02/05 03:18:47;;;;;;;11.65;3.42;;;9.20;99.90;;;8.49;100.00;102631.38;4170778;28;20370;-73
2024/02/05 03:20:47;;;;;;;15.20;3.58;;;9.20;99.90;;;8.49;100.00;102636.63;4170467;28;20025;-73
2024/02/05 03:22:48;;;;;;;12.50;2.92;;;9.20;99.90;;;8.48;100.00;102630.56;4170585;28;20033;-74
2024/02/05 03:24:49;;;;;;;11.88;2.67;;;9.20;99.90;;;8.51;100.00;102627.69;4170801;28;20041;-73
2024/02/05 03:26:50;;;;;;;13.88;3.42;;;9.20;99.90;;;8.53;100.00;102619.72;4170614;28;20033;-73
2024/02/05 03:28:51;;;;;;;19.08;3.53;;;9.20;99.90;;;8.53;100.00;102628.47;4169739;28;20028;-74
2024/02/05 03:30:52;;;;;;;19.55;3.38;;;9.20;99.90;;;8.51;100.00;102619.00;4170434;28;20029;-74
2024/02/05 03:32:53;;;;;;;13.90;3.53;;;9.20;99.90;;;8.49;100.00;102616.44;4170196;28;20075;-74
2024/02/05 03:34:54;;;;;;;11.65;3.00;;;9.20;99.90;;;8.47;100.00;102607.81;4169257;28;20032;-73
2024/02/05 03:36:55;;;;;;;12.27;3.03;;;9.20;99.90;;;8.53;100.00;102623.22;4169040;28;20056;-73
2024/02/05 03:38:56;;;;;;;9.25;3.17;;;9.20;99.90;;;8.54;100.00;102622.25;4169239;28;20044;-73
2024/02/05 03:40:57;;;;;;;10.75;2.40;;;9.20;99.90;;;8.53;100.00;102617.94;4169120;28;20028;-74
2024/02/05 03:42:58;;;;;;;11.20;3.00;;;9.20;99.90;;;8.54;100.00;102613.53;4170453;28;20036;-74
2024/02/05 03:44:58;;;;;;;15.02;3.58;;;9.20;99.90;;;8.55;100.00;102618.69;4168922;28;20021;-74
2024/02/05 03:46:59;;;;;;;16.38;3.15;;;9.20;99.90;;;8.51;100.00;102614.56;4170174;28;20033;-74
2024/02/05 03:49:00;;;;;;;12.43;3.75;;;9.20;99.90;;;8.55;100.00;102610.78;4168945;28;20076;-74
2024/02/05 03:51:01;;;;;;;9.65;3.28;;;9.20;99.90;;;8.52;100.00;102603.09;4170286;28;20092;-74
2024/02/05 03:53:02;;;;;;;10.40;3.42;;;9.20;99.90;;;8.56;100.00;102609.00;4170394;28;20021;-74
2024/02/05 03:55:05;;;;;;;6.78;2.65;;;9.20;99.90;;;8.55;100.00;102599.44;4169014;28;20080;-74
2024/02/05 03:57:06;;;;;;;17.85;3.58;;;9.20;99.90;;;8.55;100.00;102602.06;4152413;28;20092;-74
2024/02/05 03:59:07;;;;;;;11.57;3.05;;;9.20;99.90;;;8.57;100.00;102606.28;4179452;28;20073;-74
2024/02/05 04:01:08;;;;;;;10.20;3.20;;;9.20;99.90;;;8.56;100.00;102607.22;4170130;28;20489;-74
2024/02/05 04:03:09;;;;;;;8.45;2.17;;;9.30;99.90;;;8.56;100.00;102604.59;4170026;28;20482;-73
2024/02/05 04:05:11;;;;;;;9.82;3.15;;;9.20;99.90;;;8.54;100.00;102595.94;4169905;28;20025;-74
2024/02/05 04:07:11;;;;;;;11.15;2.47;;;9.20;99.90;;;8.52;100.00;102592.56;4168455;28;20486;-74
2024/02/05 04:09:12;;;;;;;12.55;2.90;;;9.20;99.90;;;8.53;100.00;102598.69;4168581;28;20033;-74
2024/02/05 04:11:13;;;;;;;11.25;2.30;;;9.20;99.90;;;8.54;100.00;102587.25;4168750;28;20021;-73
2024/02/05 04:13:14;;;;;;;10.80;3.00;;;9.20;99.90;;;8.57;100.00;102590.50;4152177;28;20084;-73
2024/02/05 04:15:15;;;;;;;11.05;3.35;;;9.30;99.90;;;8.55;100.00;102591.53;4168770;28;20029;-73
2024/02/05 04:17:16;;;;;;;13.40;2.63;;;9.20;99.90;;;8.53;100.00;102582.91;4169735;28;20026;-74
2024/02/05 04:19:17;;;;;;;9.13;3.08;;;9.20;99.90;;;8.56;100.00;102591.44;4168709;28;20025;-73
2024/02/05 04:21:17;;;;;;;9.63;3.53;;;9.30;99.90;;;8.56;100.00;102591.44;4169483;28;20104;-73
2024/02/05 04:23:19;;;;;;;8.30;2.53;;;9.30;99.90;;;8.56;100.00;102583.56;4169858;28;20025;-73
2024/02/05 04:25:21;;;;;;;12.85;3.30;;;9.30;99.90;;;8.57;100.00;102585.22;4168798;28;20069;-73
2024/02/05 04:27:22;;;;;;;12.27;2.60;;;9.30;99.90;;;8.54;100.00;102576.72;4169699;28;20108;-73
2024/02/05 04:29:24;;;;;;;15.95;3.58;;;9.30;99.90;;;8.57;100.00;102579.16;4168276;28;20017;-73
2024/02/05 04:31:25;;;;;;;9.32;3.08;;;9.30;99.90;;;8.56;100.00;102575.66;4168466;28;20480;-74
2024/02/05 04:33:26;;;;;;;10.85;3.08;;;9.30;99.90;;;8.55;100.00;102571.34;4168420;28;20025;-73
2024/02/05 04:35:27;;;;;;;15.75;3.60;;;9.30;99.90;;;8.52;100.00;102571.53;4169436;28;20033;-74
2024/02/05 04:37:28;;;;;;;19.73;3.45;;;9.30;99.90;;;8.55;100.00;102573.97;4167378;28;20025;-74
2024/02/05 04:39:29;;;;;;;18.48;3.28;;;9.30;99.90;;;8.57;100.00;102577.34;4167990;28;20033;-74
2024/02/05 04:41:30;;;;;;;7.47;3.55;;;9.30;99.90;;;8.59;100.00;102575.47;4167832;28;20045;-74
2024/02/05 04:43:30;;;;;;;13.73;3.83;;;9.30;99.90;;;8.60;100.00;102579.78;4169379;28;20055;-74
2024/02/05 04:45:31;;;;;;;5.20;2.42;;;9.30;99.90;;;8.56;100.00;102577.44;4169169;28;20029;-74
2024/02/05 04:47:32;;;;;;;9.73;2.78;;;9.30;99.90;;;8.56;100.00;102578.31;4169203;28;20046;-74
2024/02/05 04:49:33;;;;;;;11.38;3.13;;;9.30;99.90;;;8.57;100.00;102571.25;4169547;28;20088;-73
2024/02/05 04:51:34;;;;;;;7.47;2.55;;;9.30;99.90;;;8.57;100.00;102574.72;4169155;28;20030;-74
2024/02/05 04:53:35;;;;;;;12.30;3.78;;;9.30;99.90;;;8.57;100.00;102569.44;4169196;28;20021;-73
2024/02/05 04:55:39;;;;;;;12.68;5.30;;;9.30;99.90;;;8.58;100.00;102565.88;4169246;28;20048;-73
2024/02/05 04:57:40;;;;;;;14.15;3.67;;;9.30;99.90;;;8.57;100.00;102560.75;4169317;28;20036;-73
2024/02/05 04:59:41;;;;;;;12.45;4.57;;;9.30;99.90;;;8.60;100.00;102560.53;4167858;28;20036;-73
2024/02/05 05:01:42;;;;;;;13.57;4.55;;;9.30;99.90;;;8.59;100.00;102557.06;4168954;28;20029;-73
2024/02/05 05:03:43;;;;;;;14.73;4.65;;;9.30;99.90;;;8.56;100.00;102548.53;4169282;28;20025;-73
2024/02/05 05:05:44;;;;;;;8.15;2.67;;;9.30;99.90;;;8.61;100.00;102565.69;4168839;28;20033;-73
2024/02/05 05:07:45;;;;;;;15.57;3.25;;;9.30;99.90;;;8.59;100.00;102564.94;4169107;28;20025;-73
2024/02/05 05:09:45;;;;;;;11.98;2.58;;;9.30;99.90;;;8.59;100.00;102557.06;4168811;28;20038;-73
2024/02/05 05:11:47;;;;;;;11.65;2.60;;;9.30;99.90;;;8.59;100.00;102558.84;4169252;28;20033;-73
2024/02/05 05:13:49;;;;;;;12.15;3.78;;;9.30;99.90;;;8.62;100.00;102561.28;4167825;28;20048;-73
2024/02/05 05:15:50;;;;;;;7.50;2.47;;;9.30;99.90;;;8.57;100.00;102556.28;4167799;28;20063;-73
2024/02/05 05:17:51;;;;;;;10.30;2.50;;;9.30;99.90;;;8.56;100.00;102556.41;4168895;28;20489;-73
2024/02/05 05:19:51;;;;;;;13.27;3.88;;;9.30;99.90;;;8.58;100.00;102551.88;4167804;28;20528;-74
2024/02/05 05:21:52;;;;;;;11.13;3.63;;;9.30;99.90;;;8.56;100.00;102545.88;4168807;28;20033;-73
2024/02/05 05:23:53;;;;;;;12.23;2.85;;;9.30;99.90;;;8.59;100.00;102556.22;4167743;28;20032;-73
2024/02/05 05:25:54;;;;;;;7.72;2.65;;;9.30;99.90;;;8.60;100.00;102553.47;4168785;28;20037;-73
2024/02/05 05:27:55;;;;;;;9.32;2.63;;;9.30;99.90;;;8.60;100.00;102552.66;4167526;28;20033;-74
2024/02/05 05:29:56;;;;;;;14.25;2.63;;;9.30;99.90;;;8.61;100.00;102555.16;4168875;28;20040;-74
2024/02/05 05:31:56;;;;;;;9.98;2.22;;;9.30;99.90;;;8.62;100.00;102553.38;4167168;28;20488;-74
2024/02/05 05:33:57;;;;;;;9.75;2.63;;;9.30;99.90;;;8.61;100.00;102549.06;4168702;28;20566;-74
2024/02/05 05:35:58;;;;;;;7.55;2.65;;;9.30;99.90;;;8.60;100.00;102548.22;4168566;28;20017;-74
2024/02/05 05:37:59;;;;;;;9.52;2.78;;;9.30;99.90;;;8.61;100.00;102544.66;4168799;28;20029;-73
2024/02/05 05:40:00;;;;;;;11.65;3.08;;;9.30;99.90;;;8.64;100.00;102546.22;4168738;28;20396;-73
2024/02/05 05:42:01;;;;;;;9.73;3.20;;;9.30;99.90;;;8.59;100.00;102535.16;4168644;28;20463;-74
2024/02/05 05:44:03;;;;;;;10.75;3.08;;;9.30;99.90;;;8.63;100.00;102552.44;4167374;28;20424;-73
2024/02/05 05:46:04;;;;;;;14.80;3.55;;;9.30;99.90;;;8.61;100.00;102542.00;4167157;28;20029;-74
2024/02/05 05:48:07;;;;;;;7.90;2.70;;;9.30;99.90;;;8.59;100.00;102540.44;4167301;28;20077;-73
2024/02/05 05:50:08;;;;;;;6.97;3.00;;;9.30;99.90;;;8.60;100.00;102542.13;4167285;28;20030;-73
2024/02/05 05:52:09;;;;;;;13.38;2.92;;;9.30;99.90;;;8.59;100.00;102538.66;4170837;28;20022;-73
2024/02/05 05:54:10;;;;;;;11.45;2.97;;;9.30;99.90;;;8.62;100.00;102535.81;4174128;28;20559;-73
2024/02/05 05:56:11;;;;;;;10.35;3.92;;;9.30;99.90;;;8.63;100.00;102537.47;4172823;28;20025;-73
2024/02/05 05:58:12;;;;;;;13.80;2.33;;;9.30;99.90;;;8.62;100.00;102538.44;4174028;28;20036;-74
2024/02/05 06:00:14;;;;;;;11.90;2.08;;;9.30;99.90;;;8.64;100.00;102538.34;4173885;28;20060;-73
2024/02/05 06:02:15;;;;;;;15.20;2.78;;;9.30;99.90;;;8.64;100.00;102539.19;4174092;28;20085;-73
2024/02/05 06:04:16;;;;;;;8.77;2.33;;;9.40;99.90;;;8.64;100.00;102535.69;4174083;28;20029;-73
2024/02/05 06:06:16;;;;;;;11.07;2.08;;;9.30;99.90;;;8.63;100.00;102529.59;4173696;28;20030;-73
2024/02/05 06:08:18;;;;;;;7.97;2.50;;;9.40;99.90;;;8.65;100.00;102525.09;4173878;28;20101;-73
2024/02/05 06:10:20;;;;;;;13.23;2.22;;;9.30;99.90;;;8.65;100.00;102529.50;4172615;28;20033;-73
2024/02/05 06:12:22;;;;;;;10.95;3.40;;;9.30;99.90;;;8.65;100.00;102535.63;4172832;28;20052;-73
2024/02/05 06:14:23;;;;;;;11.18;3.38;;;9.30;99.90;;;8.64;100.00;102527.81;4173903;28;20036;-73
2024/02/05 06:16:24;;;;;;;7.20;2.08;;;9.30;99.90;;;8.63;100.00;102529.59;4173746;28;20397;-73
2024/02/05 06:18:24;;;;;;;5.88;2.08;;;9.30;99.90;;;8.62;100.00;102521.81;4172667;28;20029;-73
2024/02/05 06:20:26;;;;;;;10.50;2.58;;;9.40;99.90;;;8.61;100.00;102523.59;4173897;28;20025;-73
2024/02/05 06:22:26;;;;;;;15.48;2.42;;;9.30;99.90;;;8.60;100.00;102511.38;4173621;28;20029;-73
2024/02/05 06:24:29;;;;;;;10.77;3.35;;;9.30;99.90;;;8.61;100.00;102514.84;4173722;28;20383;-73
2024/02/05 06:26:30;;;;;;;14.15;2.72;;;9.30;99.90;;;8.57;100.00;102508.13;4173839;28;20025;-73
2024/02/05 06:28:31;;;;;;;4.57;1.98;;;9.30;99.90;;;8.59;100.00;102508.88;4173880;28;20041;-74
2024/02/05 06:30:31;;;;;;;11.57;3.22;;;9.30;99.90;;;8.60;100.00;102515.81;4172570;28;20041;-74
2024/02/05 06:32:32;;;;;;;9.57;3.10;;;9.30;99.90;;;8.57;100.00;102508.94;4173717;28;20037;-73
2024/02/05 06:34:33;;;;;;;13.88;2.45;;;9.30;99.90;;;8.59;100.00;102520.22;4172420;28;20052;-73
2024/02/05 06:36:34;;;;;;;7.70;2.47;;;9.30;99.90;;;8.58;100.00;102520.31;4173527;28;20022;-73
2024/02/05 06:38:35;;;;;;;11.82;2.55;;;9.30;99.90;;;8.60;100.00;102521.91;4173242;28;20041;-73
2024/02/05 06:40:37;;;;;;;9.32;2.25;;;9.30;99.90;;;8.59;100.00;102522.88;4173576;28;20519;-74
2024/02/05 06:42:38;;;;;;;11.20;2.90;;;9.30;99.90;;;8.59;100.00;102517.59;4172628;28;20033;-74
2024/02/05 06:44:39;;;;;;;10.00;3.08;;;9.30;99.90;;;8.58;100.00;102515.06;4172491;28;20021;-74
2024/02/05 06:46:40;;;;;;;6.55;2.30;;;9.30;99.90;;;8.59;100.00;102514.97;4172428;28;20550;-73
2024/02/05 06:48:40;;;;;;;9.70;2.53;;;9.30;99.90;;;8.58;100.00;102513.28;4173531;28;20041;-73
2024/02/05 06:50:41;;;;;;;10.52;1.73;;;9.30;99.90;;;8.52;100.00;102511.03;4173547;28;20032;-73
2024/02/05 06:52:42;;;;;;;11.65;1.73;;;9.30;99.90;;;8.49;100.00;102515.66;4172431;28;20036;-73
2024/02/05 06:54:43;;;;;;;5.03;1.80;;;9.30;99.90;;;8.46;100.00;102507.97;4173635;28;20374;-73
2024/02/05 06:56:44;;;;;;;8.02;1.65;;;9.20;99.90;;;8.48;100.00;102517.47;4173506;28;20029;-73
2024/02/05 06:58:45;;;;;;;10.27;1.83;;;9.20;99.90;;;8.45;100.00;102509.78;4173578;28;20079;-73
2024/02/05 07:00:46;;;;;;;8.00;1.42;;;9.20;99.90;;;8.48;100.00;102517.47;4173600;28;20029;-74
2024/02/05 07:02:49;;;;;;;5.65;1.75;;;9.20;99.90;;;8.49;100.00;102515.66;4171002;28;20029;-73
2024/02/05 07:04:50;;;;;;;5.60;2.00;;;9.20;99.90;;;8.47;100.00;102515.78;4169677;28;20104;-73
2024/02/05 07:06:51;;;;;;;7.70;1.90;;;9.20;99.90;;;8.48;100.00;102520.09;4170649;28;20036;-73
2024/02/05 07:08:52;;;;;;;5.90;1.90;;;9.20;99.90;;;8.51;100.00;102522.50;4170861;28;20036;-74
2024/02/05 07:10:53;;;;;;;3.20;1.15;;;9.20;99.90;;;8.50;100.00;102512.09;4170779;28;20033;-74
2024/02/05 07:12:54;;;;;;;8.10;1.80;;;9.20;99.90;;;8.50;100.00;102510.31;4169643;28;20034;-74
2024/02/05 07:14:54;;;;;;;7.63;2.40;;;9.20;99.90;;;8.52;100.00;102511.03;4170740;28;20021;-74
2024/02/05 07:16:55;;;;;;;5.35;1.30;;;9.20;99.90;;;8.52;100.00;102512.81;4170833;28;20028;-74
2024/02/05 07:18:56;;;;;;;5.93;1.70;;;9.20;99.90;;;8.53;100.00;102504.00;4169629;28;20030;-74
2024/02/05 07:21:04;;;;;;;4.50;1.98;;;9.20;99.90;;;8.51;100.00;102504.09;4170503;28;20030;-74
2024/02/05 07:23:05;;;;;;;5.40;1.63;;;9.20;99.90;;;8.56;100.00;102512.53;4169456;28;20034;-73
2024/02/05 07:25:06;;;;;;;9.75;1.90;;;9.30;99.90;;;8.55;100.00;102502.09;4171130;28;20033;-74
2024/02/05 07:27:07;;;;;;;9.82;2.88;;;9.20;99.90;;;8.55;100.00;102505.59;4170773;28;20109;-73
2024/02/05 07:29:08;;;;;;;4.32;1.70;;;9.20;99.90;;;8.56;100.00;102506.44;4169398;28;20029;-73
2024/02/05 07:31:09;;;;;;;5.10;1.63;;;9.30;99.90;;;8.55;100.00;102507.38;4170399;28;20029;-74
2024/02/05 07:33:10;;;;;;;3.97;1.92;;;9.30;99.90;;;8.55;100.00;102500.31;4169441;28;20017;-74
2024/02/05 07:35:11;;;;;;;5.25;1.73;;;9.20;99.90;;;8.58;100.00;102496.66;4169050;28;20030;-74
2024/02/05 07:37:12;;;;;;;5.68;1.63;;;9.30;99.90;;;8.60;100.00;102500.84;4169075;28;20028;-73
2024/02/05 07:39:13;;;;;;;2.63;1.27;;;9.30;99.90;;;8.60;100.00;102506.13;4170383;28;20550;-73
2024/02/05 07:41:15;;;;;;;5.28;1.60;;;9.30;99.90;;;8.63;100.00;102508.53;4152769;28;20062;-74
2024/02/05 07:43:16;;;;;;;5.15;1.60;;;9.30;99.90;;;8.62;100.00;102496.34;4170267;28;20400;-73
2024/02/05 07:45:17;;;;;;;5.35;1.88;;;9.30;99.90;;;8.65;100.00;102500.56;4169077;28;20026;-74
2024/02/05 07:47:18;;;;;;;3.95;1.75;;;9.30;99.90;;;8.65;100.00;102508.47;4168791;28;20404;-74
2024/02/05 07:49:19;;;;;;;4.32;1.77;;;9.30;99.90;;;8.68;100.00;102509.13;4169256;28;20061;-73
2024/02/05 07:51:20;;;;;;;5.93;1.75;;;9.30;99.90;;;8.67;100.00;102507.41;4169024;28;20037;-74
2024/02/05 07:53:23;;;;;;;7.03;1.52;;;9.30;99.90;;;8.66;100.00;102502.28;4170313;28;20018;-74
2024/02/05 07:55:24;;;;;;;5.88;1.60;;;9.40;99.90;;;8.68;100.00;102509.13;4168962;28;20436;-73
2024/02/05 07:57:25;;;;;;;5.40;1.73;;;9.30;99.90;;;8.69;100.00;102507.34;4170112;28;20055;-73
2024/02/05 07:59:26;;;;;;;5.82;1.75;;;9.30;99.90;;;8.65;100.00;102500.56;4170069;28;20022;-74
2024/02/05 08:01:27;;;;;;;4.60;1.33;;;9.30;99.90;;;8.67;100.00;102510.03;4169107;28;20022;-73
2024/02/05 08:03:27;;;;;;;4.03;1.55;;;9.30;99.90;;;8.67;100.00;102509.19;4168818;28;20071;-73
2024/02/05 08:05:28;;;;;;;6.15;1.63;;;9.40;99.90;;;8.72;100.00;102509.75;4170129;28;20028;-74
2024/02/05 08:07:29;;;;;;;7.38;1.60;;;9.40;99.90;;;8.73;100.00;102517.53;4169771;28;20126;-74
2024/02/05 08:09:30;;;;;;;5.50;2.20;;;9.40;99.90;;;8.74;100.00;102523.66;4169942;28;20025;-74
2024/02/05 08:11:31;;;;;;;6.97;2.17;;;9.40;99.90;;;8.76;100.00;102517.34;4168822;28;20018;-74
2024/02/05 08:13:32;;;;;;;7.03;2.20;;;9.50;99.90;;;8.77;100.00;102515.56;4168940;28;20080;-74
2024/02/05 08:15:33;;;;;;;5.38;1.83;;;9.40;99.90;;;8.78;100.00;102512.81;4168952;28;20021;-74
2024/02/05 08:17:34;;;;;;;11.90;2.53;;;9.50;99.90;;;8.79;100.00;102511.88;4168737;28;20030;-74
2024/02/05 08:19:35;;;;;;;9.10;2.42;;;9.50;99.90;;;8.89;100.00;102526.13;4168543;28;20021;-74
2024/02/05 08:21:36;;;;;;;4.80;1.73;;;9.50;99.90;;;8.95;100.00;102518.75;4169077;28;20463;-74
2024/02/05 08:23:38;;;;;;;11.00;2.70;;;9.60;99.90;;;8.98;100.00;102527.28;4168658;28;20029;-74
2024/02/05 08:25:39;;;;;;;7.30;2.20;;;9.60;99.90;;;8.93;100.00;102518.03;4168661;28;20029;-74
2024/02/05 08:27:39;;;;;;;5.78;2.05;;;9.60;99.90;;;8.96;100.00;102517.81;4169550;28;20018;-74